Mae Hong Son Airport
VTCH : now visible

Airfield :











YOU CAN JOIN US ON...

 
LOGIN :

Register | Disclaimer

   EN    FR    IT 

 









Legend :    VFR   Marginal VFR   IFR   Intensive IFR   Very Intensive IFR
Visi :
Ceiling :
>= 8 km
>= 3000ft
5 to 8 km
1000 to 3000 ft
1500m to 5 km
500 to 1000 ft
800 to 1500m
200 to 500 ft
< 800m
< 200 ft
Symbols :   Thunderstorms  Fog  Heavy snow  Heavy precipitations  Wind > 20 kt






- Airport Elevation : 929 ft
- IATA code : HGN


VTCH - Mae Hong Son

CURRENT METAR :
  • 020200Z 00000KT 3500 BR FEW012 BKN025 23/21 Q1015 BECMG 7000 NSW

EXPIRED METARs :
  • 020100Z VRB02KT 1500 BR FEW010 BKN025 21/21 Q1014 BECMG 4000 BR
  • 020000Z 00000KT 1200 R11/P2000N BR FEW008 BKN025 21/21 Q1013 BECMG 2000 BR

TAF TAF VTCH
Valid from the 02 at 00:00 until the 03 at 00:00 UTC


012300Z 0200/0224 00000KT 1500 BR SCT025
BECMG 0201/0203 18005KT 9999 NSW
VTBB FIR / Asia



MET'MAP, your aeronautical weather chart ! - Copyright ORBIFLY December 2007 - Disclaimer

ORBIFLY MET'MAP TEAM :

Programming & Development : Alexandra Zaïnal
Original concept : Baudouin d'Aumeries
Technical & hardware support : Manuel Goepfert
Assistance : Marc-Olivier Méhu




SOURCES & CREDITS :

   NOAA       Earth
Advisory